sensor_id;sensor_type;location;lat;lon;timestamp;P1;durP1;ratioP1;P2;durP2;ratioP2
24143;SDS011;12307;50.828;6.080;2023-09-18T00:01:16;1.70;;;1.60;;
24143;SDS011;12307;50.828;6.080;2023-09-18T00:03:46;1.40;;;1.30;;
24143;SDS011;12307;50.828;6.080;2023-09-18T00:06:11;1.67;;;1.58;;
24143;SDS011;12307;50.828;6.080;2023-09-18T00:08:38;1.55;;;1.45;;
24143;SDS011;12307;50.828;6.080;2023-09-18T00:11:04;1.88;;;1.70;;
24143;SDS011;12307;50.828;6.080;2023-09-18T00:13:30;1.50;;;1.40;;
24143;SDS011;12307;50.828;6.080;2023-09-18T00:15:56;1.80;;;1.70;;
24143;SDS011;12307;50.828;6.080;2023-09-18T00:18:25;1.52;;;1.42;;
24143;SDS011;12307;50.828;6.080;2023-09-18T00:20:52;1.92;;;1.60;;
24143;SDS011;12307;50.828;6.080;2023-09-18T00:23:17;1.58;;;1.48;;
24143;SDS011;12307;50.828;6.080;2023-09-18T00:25:43;1.85;;;1.52;;
24143;SDS011;12307;50.828;6.080;2023-09-18T00:28:09;1.35;;;1.25;;
24143;SDS011;12307;50.828;6.080;2023-09-18T00:30:34;1.50;;;1.40;;
24143;SDS011;12307;50.828;6.080;2023-09-18T00:33:02;1.40;;;1.30;;
24143;SDS011;12307;50.828;6.080;2023-09-18T00:35:29;1.50;;;1.40;;
24143;SDS011;12307;50.828;6.080;2023-09-18T00:37:55;1.60;;;1.50;;
24143;SDS011;12307;50.828;6.080;2023-09-18T00:40:21;1.60;;;1.50;;
24143;SDS011;12307;50.828;6.080;2023-09-18T00:42:47;1.67;;;1.58;;
24143;SDS011;12307;50.828;6.080;2023-09-18T00:45:13;1.70;;;1.60;;
24143;SDS011;12307;50.828;6.080;2023-09-18T00:47:38;1.70;;;1.60;;
24143;SDS011;12307;50.828;6.080;2023-09-18T00:50:05;1.40;;;1.30;;
24143;SDS011;12307;50.828;6.080;2023-09-18T00:52:34;1.60;;;1.50;;
24143;SDS011;12307;50.828;6.080;2023-09-18T00:55:01;1.55;;;1.45;;
24143;SDS011;12307;50.828;6.080;2023-09-18T00:57:27;1.60;;;1.50;;
24143;SDS011;12307;50.828;6.080;2023-09-18T00:59:54;1.70;;;1.60;;
24143;SDS011;12307;50.828;6.080;2023-09-18T01:02:19;1.67;;;1.50;;
24143;SDS011;12307;50.828;6.080;2023-09-18T01:04:45;1.65;;;1.55;;
24143;SDS011;12307;50.828;6.080;2023-09-18T01:07:14;1.85;;;1.75;;
24143;SDS011;12307;50.828;6.080;2023-09-18T01:09:40;1.50;;;1.40;;
24143;SDS011;12307;50.828;6.080;2023-09-18T01:12:11;1.40;;;1.30;;
24143;SDS011;12307;50.828;6.080;2023-09-18T01:14:44;1.70;;;1.60;;
24143;SDS011;12307;50.828;6.080;2023-09-18T01:17:15;1.55;;;1.45;;
24143;SDS011;12307;50.828;6.080;2023-09-18T01:19:42;1.58;;;1.48;;
24143;SDS011;12307;50.828;6.080;2023-09-18T01:22:13;1.42;;;1.30;;
24143;SDS011;12307;50.828;6.080;2023-09-18T01:24:41;1.60;;;1.50;;
24143;SDS011;12307;50.828;6.080;2023-09-18T01:27:08;1.50;;;1.30;;
24143;SDS011;12307;50.828;6.080;2023-09-18T01:29:35;1.92;;;1.60;;
24143;SDS011;12307;50.828;6.080;2023-09-18T01:32:01;1.60;;;1.50;;
24143;SDS011;12307;50.828;6.080;2023-09-18T01:34:28;1.80;;;1.60;;
24143;SDS011;12307;50.828;6.080;2023-09-18T01:36:58;1.70;;;1.60;;
24143;SDS011;12307;50.828;6.080;2023-09-18T01:39:25;1.65;;;1.55;;
24143;SDS011;12307;50.828;6.080;2023-09-18T01:41:57;1.63;;;1.52;;
24143;SDS011;12307;50.828;6.080;2023-09-18T01:44:24;1.80;;;1.70;;
24143;SDS011;12307;50.828;6.080;2023-09-18T01:46:49;1.35;;;1.25;;
24143;SDS011;12307;50.828;6.080;2023-09-18T01:49:19;1.50;;;1.40;;
24143;SDS011;12307;50.828;6.080;2023-09-18T01:51:52;1.55;;;1.45;;
24143;SDS011;12307;50.828;6.080;2023-09-18T01:54:17;1.80;;;1.70;;
24143;SDS011;12307;50.828;6.080;2023-09-18T01:56:44;1.65;;;1.55;;
24143;SDS011;12307;50.828;6.080;2023-09-18T01:59:11;1.58;;;1.48;;
24143;SDS011;12307;50.828;6.080;2023-09-18T02:01:37;1.73;;;1.63;;
24143;SDS011;12307;50.828;6.080;2023-09-18T02:04:03;1.50;;;1.40;;
24143;SDS011;12307;50.828;6.080;2023-09-18T02:06:29;1.80;;;1.70;;
24143;SDS011;12307;50.828;6.080;2023-09-18T02:08:55;1.70;;;1.60;;
24143;SDS011;12307;50.828;6.080;2023-09-18T02:11:21;1.58;;;1.48;;
24143;SDS011;12307;50.828;6.080;2023-09-18T02:13:46;1.58;;;1.48;;
24143;SDS011;12307;50.828;6.080;2023-09-18T02:16:13;1.80;;;1.70;;
24143;SDS011;12307;50.828;6.080;2023-09-18T02:18:39;1.48;;;1.38;;
24143;SDS011;12307;50.828;6.080;2023-09-18T02:21:05;1.52;;;1.42;;
24143;SDS011;12307;50.828;6.080;2023-09-18T02:23:30;1.65;;;1.55;;
24143;SDS011;12307;50.828;6.080;2023-09-18T02:25:56;2.10;;;1.73;;
24143;SDS011;12307;50.828;6.080;2023-09-18T02:28:23;1.60;;;1.50;;
24143;SDS011;12307;50.828;6.080;2023-09-18T02:30:48;1.70;;;1.52;;
24143;SDS011;12307;50.828;6.080;2023-09-18T02:33:15;1.70;;;1.20;;
24143;SDS011;12307;50.828;6.080;2023-09-18T02:35:41;1.60;;;1.50;;
24143;SDS011;12307;50.828;6.080;2023-09-18T02:38:10;1.58;;;1.48;;
24143;SDS011;12307;50.828;6.080;2023-09-18T02:40:36;1.48;;;1.38;;
24143;SDS011;12307;50.828;6.080;2023-09-18T02:43:02;1.85;;;1.60;;
24143;SDS011;12307;50.828;6.080;2023-09-18T02:45:28;1.70;;;1.60;;
24143;SDS011;12307;50.828;6.080;2023-09-18T02:47:53;1.67;;;1.58;;
24143;SDS011;12307;50.828;6.080;2023-09-18T02:50:20;1.77;;;1.38;;
24143;SDS011;12307;50.828;6.080;2023-09-18T02:52:46;1.50;;;1.40;;
24143;SDS011;12307;50.828;6.080;2023-09-18T02:55:12;1.30;;;1.20;;
24143;SDS011;12307;50.828;6.080;2023-09-18T02:57:38;1.30;;;1.20;;
24143;SDS011;12307;50.828;6.080;2023-09-18T03:00:05;1.33;;;1.23;;
24143;SDS011;12307;50.828;6.080;2023-09-18T03:02:31;1.40;;;1.30;;
24143;SDS011;12307;50.828;6.080;2023-09-18T03:04:57;1.50;;;1.40;;
24143;SDS011;12307;50.828;6.080;2023-09-18T03:07:24;1.42;;;1.33;;
24143;SDS011;12307;50.828;6.080;2023-09-18T03:09:53;1.40;;;1.30;;
24143;SDS011;12307;50.828;6.080;2023-09-18T03:12:19;1.80;;;1.70;;
24143;SDS011;12307;50.828;6.080;2023-09-18T03:14:45;1.55;;;1.30;;
24143;SDS011;12307;50.828;6.080;2023-09-18T03:17:12;1.50;;;1.40;;
24143;SDS011;12307;50.828;6.080;2023-09-18T03:19:38;1.23;;;1.13;;
24143;SDS011;12307;50.828;6.080;2023-09-18T03:22:03;1.50;;;1.40;;
24143;SDS011;12307;50.828;6.080;2023-09-18T03:24:30;1.42;;;1.33;;
24143;SDS011;12307;50.828;6.080;2023-09-18T03:26:56;1.50;;;1.40;;
24143;SDS011;12307;50.828;6.080;2023-09-18T03:29:22;1.83;;;1.40;;
24143;SDS011;12307;50.828;6.080;2023-09-18T03:31:48;1.50;;;1.40;;
24143;SDS011;12307;50.828;6.080;2023-09-18T03:34:13;1.30;;;1.20;;
24143;SDS011;12307;50.828;6.080;2023-09-18T03:36:39;1.60;;;1.35;;
24143;SDS011;12307;50.828;6.080;2023-09-18T03:39:05;1.30;;;1.20;;
24143;SDS011;12307;50.828;6.080;2023-09-18T03:41:32;1.30;;;1.20;;
24143;SDS011;12307;50.828;6.080;2023-09-18T03:43:59;1.40;;;1.30;;
24143;SDS011;12307;50.828;6.080;2023-09-18T03:46:24;1.67;;;1.30;;
24143;SDS011;12307;50.828;6.080;2023-09-18T03:48:50;1.48;;;1.38;;
24143;SDS011;12307;50.828;6.080;2023-09-18T03:51:16;1.50;;;1.40;;
24143;SDS011;12307;50.828;6.080;2023-09-18T03:53:43;1.48;;;1.38;;
24143;SDS011;12307;50.828;6.080;2023-09-18T03:56:09;1.63;;;1.50;;
24143;SDS011;12307;50.828;6.080;2023-09-18T03:58:36;1.30;;;1.20;;
24143;SDS011;12307;50.828;6.080;2023-09-18T04:01:02;2.03;;;1.20;;
24143;SDS011;12307;50.828;6.080;2023-09-18T04:03:27;1.63;;;1.52;;
24143;SDS011;12307;50.828;6.080;2023-09-18T04:05:53;1.50;;;1.40;;
24143;SDS011;12307;50.828;6.080;2023-09-18T04:08:19;1.50;;;1.40;;
24143;SDS011;12307;50.828;6.080;2023-09-18T04:10:44;1.77;;;1.30;;
24143;SDS011;12307;50.828;6.080;2023-09-18T04:13:10;1.50;;;1.40;;
24143;SDS011;12307;50.828;6.080;2023-09-18T04:15:37;1.55;;;1.45;;
24143;SDS011;12307;50.828;6.080;2023-09-18T04:18:03;1.65;;;1.55;;
24143;SDS011;12307;50.828;6.080;2023-09-18T04:20:29;1.40;;;1.30;;
24143;SDS011;12307;50.828;6.080;2023-09-18T04:25:46;1.60;;;1.50;;
24143;SDS011;12307;50.828;6.080;2023-09-18T04:28:12;1.65;;;1.52;;
24143;SDS011;12307;50.828;6.080;2023-09-18T04:30:40;1.70;;;1.42;;
24143;SDS011;12307;50.828;6.080;2023-09-18T04:33:05;1.60;;;1.50;;
24143;SDS011;12307;50.828;6.080;2023-09-18T04:35:31;1.70;;;1.60;;
24143;SDS011;12307;50.828;6.080;2023-09-18T04:37:58;1.60;;;1.50;;
24143;SDS011;12307;50.828;6.080;2023-09-18T04:40:24;1.50;;;1.40;;
24143;SDS011;12307;50.828;6.080;2023-09-18T04:42:51;1.42;;;1.33;;
24143;SDS011;12307;50.828;6.080;2023-09-18T04:45:17;1.55;;;1.45;;
24143;SDS011;12307;50.828;6.080;2023-09-18T04:47:44;1.50;;;1.40;;
24143;SDS011;12307;50.828;6.080;2023-09-18T04:50:10;1.50;;;1.40;;
24143;SDS011;12307;50.828;6.080;2023-09-18T04:52:36;1.42;;;1.33;;
24143;SDS011;12307;50.828;6.080;2023-09-18T04:55:02;1.52;;;1.42;;
24143;SDS011;12307;50.828;6.080;2023-09-18T04:57:31;1.50;;;1.40;;
24143;SDS011;12307;50.828;6.080;2023-09-18T04:59:56;1.50;;;1.40;;
24143;SDS011;12307;50.828;6.080;2023-09-18T05:02:22;1.45;;;1.35;;
24143;SDS011;12307;50.828;6.080;2023-09-18T05:04:51;1.30;;;1.20;;
24143;SDS011;12307;50.828;6.080;2023-09-18T05:07:17;1.40;;;1.30;;
24143;SDS011;12307;50.828;6.080;2023-09-18T05:09:43;1.38;;;1.27;;
24143;SDS011;12307;50.828;6.080;2023-09-18T05:12:09;1.42;;;1.33;;
24143;SDS011;12307;50.828;6.080;2023-09-18T05:14:38;1.50;;;1.40;;
24143;SDS011;12307;50.828;6.080;2023-09-18T05:17:04;1.60;;;1.50;;
24143;SDS011;12307;50.828;6.080;2023-09-18T05:19:30;1.40;;;1.30;;
24143;SDS011;12307;50.828;6.080;2023-09-18T05:21:57;1.98;;;1.40;;
24143;SDS011;12307;50.828;6.080;2023-09-18T05:24:22;1.50;;;1.40;;
24143;SDS011;12307;50.828;6.080;2023-09-18T05:26:52;1.45;;;1.25;;
24143;SDS011;12307;50.828;6.080;2023-09-18T05:29:18;1.50;;;1.40;;
24143;SDS011;12307;50.828;6.080;2023-09-18T05:31:43;1.45;;;1.35;;
24143;SDS011;12307;50.828;6.080;2023-09-18T05:34:10;2.58;;;1.52;;
24143;SDS011;12307;50.828;6.080;2023-09-18T05:36:36;1.50;;;1.40;;
24143;SDS011;12307;50.828;6.080;2023-09-18T05:39:04;1.55;;;1.45;;
24143;SDS011;12307;50.828;6.080;2023-09-18T05:41:34;1.50;;;1.40;;
24143;SDS011;12307;50.828;6.080;2023-09-18T05:44:01;1.70;;;1.48;;
24143;SDS011;12307;50.828;6.080;2023-09-18T05:46:28;1.25;;;1.15;;
24143;SDS011;12307;50.828;6.080;2023-09-18T05:48:54;1.50;;;1.40;;
24143;SDS011;12307;50.828;6.080;2023-09-18T05:51:22;1.60;;;1.50;;
24143;SDS011;12307;50.828;6.080;2023-09-18T05:53:47;1.55;;;1.25;;
24143;SDS011;12307;50.828;6.080;2023-09-18T05:56:14;1.58;;;1.48;;
24143;SDS011;12307;50.828;6.080;2023-09-18T05:58:42;1.30;;;1.20;;
24143;SDS011;12307;50.828;6.080;2023-09-18T06:01:08;1.33;;;1.23;;
24143;SDS011;12307;50.828;6.080;2023-09-18T06:03:34;1.40;;;1.30;;
24143;SDS011;12307;50.828;6.080;2023-09-18T06:06:03;1.48;;;1.20;;
24143;SDS011;12307;50.828;6.080;2023-09-18T06:08:29;1.50;;;1.40;;
24143;SDS011;12307;50.828;6.080;2023-09-18T06:10:58;1.48;;;1.38;;
24143;SDS011;12307;50.828;6.080;2023-09-18T06:13:25;1.42;;;1.33;;
24143;SDS011;12307;50.828;6.080;2023-09-18T06:15:53;1.35;;;1.25;;
24143;SDS011;12307;50.828;6.080;2023-09-18T06:18:19;1.58;;;1.27;;
24143;SDS011;12307;50.828;6.080;2023-09-18T06:20:48;1.42;;;1.33;;
24143;SDS011;12307;50.828;6.080;2023-09-18T06:23:14;1.52;;;1.27;;
24143;SDS011;12307;50.828;6.080;2023-09-18T06:25:40;1.10;;;1.10;;
24143;SDS011;12307;50.828;6.080;2023-09-18T06:28:06;1.58;;;1.30;;
24143;SDS011;12307;50.828;6.080;2023-09-18T06:30:33;1.55;;;1.30;;
24143;SDS011;12307;50.828;6.080;2023-09-18T06:33:01;1.98;;;1.10;;
24143;SDS011;12307;50.828;6.080;2023-09-18T06:35:29;0.95;;;0.80;;
24143;SDS011;12307;50.828;6.080;2023-09-18T06:37:55;0.90;;;0.90;;
24143;SDS011;12307;50.828;6.080;2023-09-18T06:40:23;1.50;;;1.10;;
24143;SDS011;12307;50.828;6.080;2023-09-18T06:42:49;1.30;;;1.08;;
24143;SDS011;12307;50.828;6.080;2023-09-18T06:45:15;1.40;;;1.13;;
24143;SDS011;12307;50.828;6.080;2023-09-18T06:47:42;0.95;;;0.95;;
24143;SDS011;12307;50.828;6.080;2023-09-18T06:50:08;2.58;;;1.05;;
24143;SDS011;12307;50.828;6.080;2023-09-18T06:52:34;1.10;;;1.00;;
24143;SDS011;12307;50.828;6.080;2023-09-18T06:55:00;1.08;;;0.80;;
24143;SDS011;12307;50.828;6.080;2023-09-18T06:57:26;0.90;;;0.75;;
24143;SDS011;12307;50.828;6.080;2023-09-18T06:59:52;0.80;;;0.80;;
24143;SDS011;12307;50.828;6.080;2023-09-18T07:02:18;1.35;;;0.90;;
24143;SDS011;12307;50.828;6.080;2023-09-18T07:04:45;1.45;;;0.93;;
24143;SDS011;12307;50.828;6.080;2023-09-18T07:07:11;1.17;;;0.82;;
24143;SDS011;12307;50.828;6.080;2023-09-18T07:09:37;0.70;;;0.70;;
24143;SDS011;12307;50.828;6.080;2023-09-18T07:12:03;1.00;;;0.90;;
24143;SDS011;12307;50.828;6.080;2023-09-18T07:14:30;0.90;;;0.70;;
24143;SDS011;12307;50.828;6.080;2023-09-18T07:16:55;1.15;;;0.60;;
24143;SDS011;12307;50.828;6.080;2023-09-18T07:19:21;1.00;;;0.90;;
24143;SDS011;12307;50.828;6.080;2023-09-18T07:21:48;0.75;;;0.70;;
24143;SDS011;12307;50.828;6.080;2023-09-18T07:24:14;1.30;;;0.80;;
24143;SDS011;12307;50.828;6.080;2023-09-18T07:26:45;1.10;;;0.88;;
24143;SDS011;12307;50.828;6.080;2023-09-18T07:29:11;1.42;;;0.95;;
24143;SDS011;12307;50.828;6.080;2023-09-18T07:31:38;1.27;;;0.90;;
24143;SDS011;12307;50.828;6.080;2023-09-18T07:34:05;0.82;;;0.70;;
24143;SDS011;12307;50.828;6.080;2023-09-18T07:36:31;1.17;;;0.70;;
24143;SDS011;12307;50.828;6.080;2023-09-18T07:38:58;0.80;;;0.75;;
24143;SDS011;12307;50.828;6.080;2023-09-18T07:41:24;1.10;;;1.00;;
24143;SDS011;12307;50.828;6.080;2023-09-18T07:43:50;1.27;;;0.82;;
24143;SDS011;12307;50.828;6.080;2023-09-18T07:46:16;0.93;;;0.82;;
24143;SDS011;12307;50.828;6.080;2023-09-18T07:48:42;1.88;;;0.73;;
24143;SDS011;12307;50.828;6.080;2023-09-18T07:51:10;1.25;;;0.93;;
24143;SDS011;12307;50.828;6.080;2023-09-18T07:53:36;1.10;;;0.80;;
24143;SDS011;12307;50.828;6.080;2023-09-18T07:56:04;1.10;;;0.88;;
24143;SDS011;12307;50.828;6.080;2023-09-18T07:58:30;1.42;;;0.80;;
24143;SDS011;12307;50.828;6.080;2023-09-18T08:00:55;1.00;;;0.90;;
24143;SDS011;12307;50.828;6.080;2023-09-18T08:03:24;1.25;;;0.88;;
24143;SDS011;12307;50.828;6.080;2023-09-18T08:05:51;1.25;;;0.75;;
24143;SDS011;12307;50.828;6.080;2023-09-18T08:08:17;1.10;;;1.00;;
24143;SDS011;12307;50.828;6.080;2023-09-18T08:10:45;2.35;;;1.05;;
24143;SDS011;12307;50.828;6.080;2023-09-18T08:13:12;1.38;;;0.90;;
24143;SDS011;12307;50.828;6.080;2023-09-18T08:15:38;1.50;;;0.80;;
24143;SDS011;12307;50.828;6.080;2023-09-18T08:18:04;1.85;;;1.00;;
24143;SDS011;12307;50.828;6.080;2023-09-18T08:20:30;0.70;;;0.70;;
24143;SDS011;12307;50.828;6.080;2023-09-18T08:22:55;0.93;;;0.88;;
24143;SDS011;12307;50.828;6.080;2023-09-18T08:25:21;0.88;;;0.85;;
24143;SDS011;12307;50.828;6.080;2023-09-18T08:27:47;1.42;;;0.90;;
24143;SDS011;12307;50.828;6.080;2023-09-18T08:30:15;1.10;;;0.90;;
24143;SDS011;12307;50.828;6.080;2023-09-18T08:32:42;2.53;;;1.00;;
24143;SDS011;12307;50.828;6.080;2023-09-18T08:35:08;1.38;;;0.93;;
24143;SDS011;12307;50.828;6.080;2023-09-18T08:37:34;2.45;;;1.10;;
24143;SDS011;12307;50.828;6.080;2023-09-18T08:40:00;0.80;;;0.80;;
24143;SDS011;12307;50.828;6.080;2023-09-18T08:42:34;1.48;;;1.00;;
24143;SDS011;12307;50.828;6.080;2023-09-18T08:45:01;1.40;;;0.88;;
24143;SDS011;12307;50.828;6.080;2023-09-18T08:47:31;0.93;;;0.80;;
24143;SDS011;12307;50.828;6.080;2023-09-18T08:49:57;1.30;;;1.02;;
24143;SDS011;12307;50.828;6.080;2023-09-18T08:52:24;1.63;;;0.98;;
24143;SDS011;12307;50.828;6.080;2023-09-18T08:54:51;0.85;;;0.85;;
24143;SDS011;12307;50.828;6.080;2023-09-18T08:57:17;1.00;;;0.90;;
24143;SDS011;12307;50.828;6.080;2023-09-18T08:59:43;1.65;;;1.05;;
24143;SDS011;12307;50.828;6.080;2023-09-18T09:02:09;1.17;;;0.90;;
24143;SDS011;12307;50.828;6.080;2023-09-18T09:04:38;1.40;;;0.90;;
24143;SDS011;12307;50.828;6.080;2023-09-18T09:07:04;2.00;;;1.20;;
24143;SDS011;12307;50.828;6.080;2023-09-18T09:09:30;1.00;;;0.90;;
24143;SDS011;12307;50.828;6.080;2023-09-18T09:11:56;1.35;;;1.10;;
24143;SDS011;12307;50.828;6.080;2023-09-18T09:14:22;1.58;;;0.95;;
24143;SDS011;12307;50.828;6.080;2023-09-18T09:16:53;1.38;;;1.10;;
24143;SDS011;12307;50.828;6.080;2023-09-18T09:19:27;0.93;;;0.80;;
24143;SDS011;12307;50.828;6.080;2023-09-18T09:21:56;0.73;;;0.73;;
24143;SDS011;12307;50.828;6.080;2023-09-18T09:24:35;1.08;;;0.98;;
24143;SDS011;12307;50.828;6.080;2023-09-18T09:27:02;1.48;;;0.90;;
24143;SDS011;12307;50.828;6.080;2023-09-18T09:29:28;1.50;;;0.85;;
24143;SDS011;12307;50.828;6.080;2023-09-18T09:31:55;1.55;;;1.08;;
24143;SDS011;12307;50.828;6.080;2023-09-18T09:34:25;0.85;;;0.85;;
24143;SDS011;12307;50.828;6.080;2023-09-18T09:36:52;0.75;;;0.68;;
24143;SDS011;12307;50.828;6.080;2023-09-18T09:39:20;1.17;;;0.82;;
24143;SDS011;12307;50.828;6.080;2023-09-18T09:41:49;1.10;;;0.70;;
24143;SDS011;12307;50.828;6.080;2023-09-18T09:44:16;0.80;;;0.80;;
24143;SDS011;12307;50.828;6.080;2023-09-18T09:46:45;0.73;;;0.70;;
24143;SDS011;12307;50.828;6.080;2023-09-18T09:49:11;1.58;;;0.70;;
24143;SDS011;12307;50.828;6.080;2023-09-18T09:51:36;0.80;;;0.63;;
24143;SDS011;12307;50.828;6.080;2023-09-18T09:54:02;1.27;;;0.98;;
24143;SDS011;12307;50.828;6.080;2023-09-18T09:56:42;1.30;;;0.90;;
24143;SDS011;12307;50.828;6.080;2023-09-18T09:59:10;0.98;;;0.70;;
24143;SDS011;12307;50.828;6.080;2023-09-18T10:01:36;0.93;;;0.80;;
24143;SDS011;12307;50.828;6.080;2023-09-18T10:04:03;0.95;;;0.70;;
24143;SDS011;12307;50.828;6.080;2023-09-18T10:06:33;0.75;;;0.65;;
24143;SDS011;12307;50.828;6.080;2023-09-18T10:09:00;0.77;;;0.60;;
24143;SDS011;12307;50.828;6.080;2023-09-18T10:11:27;1.52;;;0.90;;
24143;SDS011;12307;50.828;6.080;2023-09-18T10:13:58;1.30;;;0.88;;
24143;SDS011;12307;50.828;6.080;2023-09-18T10:16:26;1.25;;;0.73;;
24143;SDS011;12307;50.828;6.080;2023-09-18T10:18:59;0.70;;;0.70;;
24143;SDS011;12307;50.828;6.080;2023-09-18T10:21:35;0.80;;;0.65;;
24143;SDS011;12307;50.828;6.080;2023-09-18T10:24:09;1.33;;;0.70;;
24143;SDS011;12307;50.828;6.080;2023-09-18T10:26:41;0.70;;;0.70;;
24143;SDS011;12307;50.828;6.080;2023-09-18T10:29:14;1.00;;;0.80;;
24143;SDS011;12307;50.828;6.080;2023-09-18T10:31:43;0.88;;;0.70;;
24143;SDS011;12307;50.828;6.080;2023-09-18T10:34:10;0.80;;;0.80;;
24143;SDS011;12307;50.828;6.080;2023-09-18T10:36:37;1.02;;;0.70;;
24143;SDS011;12307;50.828;6.080;2023-09-18T10:39:05;1.13;;;0.90;;
24143;SDS011;12307;50.828;6.080;2023-09-18T10:41:35;1.10;;;0.70;;
24143;SDS011;12307;50.828;6.080;2023-09-18T10:44:06;0.75;;;0.75;;
24143;SDS011;12307;50.828;6.080;2023-09-18T10:46:35;1.00;;;0.73;;
24143;SDS011;12307;50.828;6.080;2023-09-18T10:49:01;1.08;;;0.80;;
24143;SDS011;12307;50.828;6.080;2023-09-18T10:51:28;2.38;;;0.73;;
24143;SDS011;12307;50.828;6.080;2023-09-18T10:53:56;0.98;;;0.70;;
24143;SDS011;12307;50.828;6.080;2023-09-18T10:56:21;1.10;;;0.77;;
24143;SDS011;12307;50.828;6.080;2023-09-18T10:58:55;1.00;;;0.80;;
24143;SDS011;12307;50.828;6.080;2023-09-18T11:01:23;0.93;;;0.88;;
24143;SDS011;12307;50.828;6.080;2023-09-18T11:03:54;2.10;;;0.80;;
24143;SDS011;12307;50.828;6.080;2023-09-18T11:06:25;1.63;;;0.60;;
24143;SDS011;12307;50.828;6.080;2023-09-18T11:08:56;3.80;;;0.80;;
24143;SDS011;12307;50.828;6.080;2023-09-18T11:11:26;0.85;;;0.70;;
24143;SDS011;12307;50.828;6.080;2023-09-18T11:13:55;1.20;;;0.82;;
24143;SDS011;12307;50.828;6.080;2023-09-18T11:19:16;1.50;;;0.88;;
24143;SDS011;12307;50.828;6.080;2023-09-18T11:21:42;0.98;;;0.90;;
24143;SDS011;12307;50.828;6.080;2023-09-18T11:24:16;0.90;;;0.75;;
24143;SDS011;12307;50.828;6.080;2023-09-18T11:26:44;1.30;;;0.95;;
24143;SDS011;12307;50.828;6.080;2023-09-18T11:29:11;1.35;;;0.98;;
24143;SDS011;12307;50.828;6.080;2023-09-18T11:31:43;1.20;;;0.93;;
24143;SDS011;12307;50.828;6.080;2023-09-18T11:34:15;1.75;;;0.90;;
24143;SDS011;12307;50.828;6.080;2023-09-18T11:36:44;1.20;;;1.10;;
24143;SDS011;12307;50.828;6.080;2023-09-18T11:39:11;1.20;;;1.05;;
24143;SDS011;12307;50.828;6.080;2023-09-18T11:41:38;2.10;;;0.98;;
24143;SDS011;12307;50.828;6.080;2023-09-18T11:47:01;1.17;;;1.00;;
24143;SDS011;12307;50.828;6.080;2023-09-18T11:49:30;2.85;;;0.93;;
24143;SDS011;12307;50.828;6.080;2023-09-18T11:51:58;1.17;;;0.88;;
24143;SDS011;12307;50.828;6.080;2023-09-18T11:54:24;1.40;;;1.00;;
24143;SDS011;12307;50.828;6.080;2023-09-18T11:56:50;0.80;;;0.80;;
24143;SDS011;12307;50.828;6.080;2023-09-18T11:59:16;0.70;;;0.70;;
24143;SDS011;12307;50.828;6.080;2023-09-18T12:01:44;1.02;;;0.90;;
24143;SDS011;12307;50.828;6.080;2023-09-18T12:04:18;1.08;;;0.82;;
24143;SDS011;12307;50.828;6.080;2023-09-18T12:06:54;1.10;;;1.00;;
24143;SDS011;12307;50.828;6.080;2023-09-18T12:09:19;1.13;;;0.90;;
24143;SDS011;12307;50.828;6.080;2023-09-18T12:11:45;1.15;;;0.90;;
24143;SDS011;12307;50.828;6.080;2023-09-18T12:14:18;0.90;;;0.90;;
24143;SDS011;12307;50.828;6.080;2023-09-18T12:16:44;1.77;;;0.80;;
24143;SDS011;12307;50.828;6.080;2023-09-18T12:19:15;1.02;;;0.90;;
24143;SDS011;12307;50.828;6.080;2023-09-18T12:21:42;1.15;;;0.90;;
24143;SDS011;12307;50.828;6.080;2023-09-18T12:24:14;0.75;;;0.70;;
24143;SDS011;12307;50.828;6.080;2023-09-18T12:26:40;1.33;;;0.90;;
24143;SDS011;12307;50.828;6.080;2023-09-18T12:29:06;1.20;;;1.08;;
24143;SDS011;12307;50.828;6.080;2023-09-18T12:31:33;1.20;;;0.90;;
24143;SDS011;12307;50.828;6.080;2023-09-18T12:33:58;1.48;;;0.80;;
24143;SDS011;12307;50.828;6.080;2023-09-18T12:36:25;1.33;;;0.85;;
24143;SDS011;12307;50.828;6.080;2023-09-18T12:38:59;2.05;;;1.08;;
24143;SDS011;12307;50.828;6.080;2023-09-18T12:41:27;1.63;;;1.10;;
24143;SDS011;12307;50.828;6.080;2023-09-18T12:43:53;0.80;;;0.80;;
24143;SDS011;12307;50.828;6.080;2023-09-18T12:46:19;1.15;;;0.88;;
24143;SDS011;12307;50.828;6.080;2023-09-18T12:48:46;0.95;;;0.85;;
24143;SDS011;12307;50.828;6.080;2023-09-18T12:51:13;0.90;;;0.90;;
24143;SDS011;12307;50.828;6.080;2023-09-18T12:53:39;1.20;;;1.10;;
24143;SDS011;12307;50.828;6.080;2023-09-18T12:56:06;1.70;;;1.10;;
24143;SDS011;12307;50.828;6.080;2023-09-18T12:58:35;1.20;;;1.10;;
24143;SDS011;12307;50.828;6.080;2023-09-18T13:01:03;2.22;;;1.20;;
24143;SDS011;12307;50.828;6.080;2023-09-18T13:03:33;1.45;;;1.00;;
24143;SDS011;12307;50.828;6.080;2023-09-18T13:06:06;1.40;;;1.30;;
24143;SDS011;12307;50.828;6.080;2023-09-18T13:08:33;1.63;;;1.33;;
24143;SDS011;12307;50.828;6.080;2023-09-18T13:11:00;1.13;;;1.00;;
24143;SDS011;12307;50.828;6.080;2023-09-18T13:13:28;1.13;;;1.02;;
24143;SDS011;12307;50.828;6.080;2023-09-18T13:15:58;1.13;;;0.98;;
24143;SDS011;12307;50.828;6.080;2023-09-18T13:18:24;1.23;;;1.02;;
24143;SDS011;12307;50.828;6.080;2023-09-18T13:20:51;1.30;;;1.13;;
24143;SDS011;12307;50.828;6.080;2023-09-18T13:23:17;1.23;;;1.00;;
24143;SDS011;12307;50.828;6.080;2023-09-18T13:25:43;1.13;;;1.02;;
24143;SDS011;12307;50.828;6.080;2023-09-18T13:28:11;1.20;;;1.10;;
24143;SDS011;12307;50.828;6.080;2023-09-18T13:30:38;1.50;;;1.05;;
24143;SDS011;12307;50.828;6.080;2023-09-18T13:33:07;1.55;;;1.00;;
24143;SDS011;12307;50.828;6.080;2023-09-18T13:35:35;1.25;;;1.10;;
24143;SDS011;12307;50.828;6.080;2023-09-18T13:38:02;1.23;;;1.05;;
24143;SDS011;12307;50.828;6.080;2023-09-18T13:40:30;1.13;;;1.02;;
24143;SDS011;12307;50.828;6.080;2023-09-18T13:42:58;1.35;;;1.10;;
24143;SDS011;12307;50.828;6.080;2023-09-18T13:45:24;1.40;;;1.30;;
24143;SDS011;12307;50.828;6.080;2023-09-18T13:47:50;1.38;;;1.20;;
24143;SDS011;12307;50.828;6.080;2023-09-18T13:50:17;1.10;;;1.00;;
24143;SDS011;12307;50.828;6.080;2023-09-18T13:52:43;1.10;;;1.00;;
24143;SDS011;12307;50.828;6.080;2023-09-18T13:55:09;1.20;;;1.10;;
24143;SDS011;12307;50.828;6.080;2023-09-18T13:57:35;1.52;;;1.20;;
24143;SDS011;12307;50.828;6.080;2023-09-18T14:00:01;1.17;;;1.02;;
24143;SDS011;12307;50.828;6.080;2023-09-18T14:02:32;1.42;;;1.20;;
24143;SDS011;12307;50.828;6.080;2023-09-18T14:04:58;1.20;;;1.10;;
24143;SDS011;12307;50.828;6.080;2023-09-18T14:07:25;1.45;;;1.20;;
24143;SDS011;12307;50.828;6.080;2023-09-18T14:09:51;1.70;;;1.10;;
24143;SDS011;12307;50.828;6.080;2023-09-18T14:12:17;1.30;;;1.00;;
24143;SDS011;12307;50.828;6.080;2023-09-18T14:14:43;1.27;;;1.10;;
24143;SDS011;12307;50.828;6.080;2023-09-18T14:17:09;1.13;;;1.02;;
24143;SDS011;12307;50.828;6.080;2023-09-18T14:19:35;0.93;;;0.93;;
24143;SDS011;12307;50.828;6.080;2023-09-18T14:22:03;1.45;;;1.35;;
24143;SDS011;12307;50.828;6.080;2023-09-18T14:24:31;2.08;;;1.20;;
24143;SDS011;12307;50.828;6.080;2023-09-18T14:26:59;1.38;;;1.17;;
24143;SDS011;12307;50.828;6.080;2023-09-18T14:29:25;1.38;;;1.25;;
24143;SDS011;12307;50.828;6.080;2023-09-18T14:31:51;1.45;;;0.98;;
24143;SDS011;12307;50.828;6.080;2023-09-18T14:34:17;1.73;;;1.20;;
24143;SDS011;12307;50.828;6.080;2023-09-18T14:36:42;1.52;;;1.00;;
24143;SDS011;12307;50.828;6.080;2023-09-18T14:39:09;2.60;;;1.20;;
24143;SDS011;12307;50.828;6.080;2023-09-18T14:41:37;1.23;;;1.13;;
24143;SDS011;12307;50.828;6.080;2023-09-18T14:44:03;1.65;;;1.17;;
24143;SDS011;12307;50.828;6.080;2023-09-18T14:46:33;1.20;;;1.08;;
24143;SDS011;12307;50.828;6.080;2023-09-18T14:48:58;1.08;;;0.93;;
24143;SDS011;12307;50.828;6.080;2023-09-18T14:51:26;2.22;;;1.30;;
24143;SDS011;12307;50.828;6.080;2023-09-18T14:53:51;1.48;;;1.08;;
24143;SDS011;12307;50.828;6.080;2023-09-18T14:56:19;1.30;;;1.20;;